Bookmark and Share
Track history (hours):
 

Gaschem Phoenix

Last reported at 2014-Apr-23 21:17 UTC. Time now 2014-Apr-24 11:17 UTC.
Position N 31°09' E 121°53'.

Length 100 m; draft 4.5 m.

Type: Tanker. MMSI: 636090235.

NotesDate/timePositionNaut miles runAvg speedWind from/ knotsBaromVisibWave heightAir tempDewpointWater temp
2014-Apr-23 21:17N 31°09' E 121°53'911.8
2014-Apr-23 20:33N 31°15' E 121°46'1211.8
2014-Apr-23 19:33N 31°23' E 121°35'8 7.8
2014-Apr-23 18:33N 31°27' E 121°28'9 9.1
2014-Apr-23 17:33N 31°33' E 121°20'1414.2
2014-Apr-23 16:33N 31°43' E 121°07'1212.4
2014-Apr-23 15:33N 31°49' E 120°55'1313.2
2014-Apr-23 14:33N 32°01' E 120°48'1312.6
2014-Apr-23 13:33N 32°01' E 120°33'1212.0
2014-Apr-23 12:33N 31°58' E 120°19'1211.7
2014-Apr-23 11:33N 31°57' E 120°05'1212.4
2014-Apr-23 10:33N 32°06' E 119°55'1513.3
2014-Apr-23 09:24N 32°20' E 119°47'8 0.2
2014-Apr-21 23:33N 32°14' E 119°53'5 4.1
2014-Apr-21 22:25N 32°09' E 119°54'0 0.0
2014-Apr-21 21:31N 32°09' E 119°54'0 0.0
2014-Apr-21 19:33N 32°09' E 119°54'0 0.0
2014-Apr-21 18:20N 32°09' E 119°54'2 2.1
2014-Apr-21 17:27N 32°07' E 119°55'1010.7
2014-Apr-21 16:33N 31°59' E 120°00'1010.3
2014-Apr-21 15:33N 31°56' E 120°12'1410.7
2014-Apr-21 14:17N 32°03' E 120°26'710.1
2014-Apr-21 13:33N 32°02' E 120°34'1110.7
2014-Apr-21 12:30N 32°01' E 120°48'1010.6
2014-Apr-21 11:33N 31°52' E 120°54'11 9.8
2014-Apr-21 10:29N 31°46' E 121°04'  
2014-Apr-16 03:03N 31°41' E 121°11'1013.2
2014-Apr-16 02:19N 31°46' E 121°02'912.0
2014-Apr-16 01:33N 31°52' E 120°53'1212.2
2014-Apr-16 00:34N 32°00' E 120°43'1414.3
2014-Apr-15 23:33N 32°02' E 120°27'1211.5
2014-Apr-15 22:33N 31°56' E 120°15'4 3.6
2014-Apr-15 21:31N 31°56' E 120°10'0 0.0
2014-Apr-15 20:33N 31°56' E 120°10'0 0.0
2014-Apr-15 19:30N 31°56' E 120°10'0 0.2
2014-Apr-15 18:29N 31°56' E 120°11'0 0.0
2014-Apr-15 17:32N 31°56' E 120°11'0 0.0
2014-Apr-15 16:31N 31°56' E 120°11'0 0.0
2014-Apr-15 15:28N 31°56' E 120°11'0 0.1
2014-Apr-15 14:30N 31°56' E 120°10'0 0.0
2014-Apr-15 12:34N 31°56' E 120°10'0 0.1
2014-Apr-15 11:33N 31°56' E 120°10'0 0.1
2014-Apr-15 10:33N 31°56' E 120°10'0 0.1
2014-Apr-15 09:32N 31°56' E 120°10'1 1.0
2014-Apr-15 08:34N 31°56' E 120°09'6 0.2
2014-Apr-14 06:33N 31°58' E 120°03'1212.4
2014-Apr-14 05:34N 31°57' E 120°17'58 8.3
2014-Apr-13 22:33N 31°35' E 121°20'  

Dump ship's entire track history

sailing weather and tide predictions

Gaschem Phoenix — ELUO6 — position and weather